Terminal Aerodrome Forecast
Issued by NWS

Home | Current Version | Previous Version | Text Only | Print | Product List | Glossary On
Versions: 1 2 3 4 5 6 7 8 9 10 11 12 13 14 15
000
FTUS41 KCAR 230520
TAFBHB
TAF
KBHB 230520Z 2306/2406 18007KT 3SM -SHRA BR OVC005
     FM231030 18004KT 5SM BR OVC008
     FM231200 VRB03KT P6SM BKN020
     FM231400 24005KT P6SM SCT040
     FM231800 21007KT P6SM SCT060
     FM240300 VRB03KT P6SM SCT120=

USA.gov is the U.S. government's official web portal to all federal, state and local government web resources and services.